createdAt,value
2019-03-05T00:01:58.968Z,47.97
2019-03-05T00:04:28.907Z,47.33
2019-03-05T00:06:58.628Z,47.93
2019-03-05T00:09:28.320Z,47.63
2019-03-05T00:11:58.070Z,48.27
2019-03-05T00:14:27.751Z,46.70
2019-03-05T00:16:57.604Z,47.23
2019-03-05T00:19:27.297Z,47.40
2019-03-05T00:21:57.063Z,47.13
2019-03-05T00:24:57.826Z,47.00
2019-03-05T00:27:28.578Z,47.80
2019-03-05T00:30:49.047Z,47.07
2019-03-05T00:33:33.038Z,47.37
2019-03-05T00:36:25.041Z,47.13
2019-03-05T00:39:33.012Z,46.97
2019-03-05T00:42:45.525Z,46.87
2019-03-05T00:45:44.537Z,47.37
2019-03-05T00:48:41.780Z,47.50
2019-03-05T00:51:50.803Z,47.20
2019-03-05T00:55:12.754Z,47.13
2019-03-05T00:58:18.688Z,47.70
2019-03-05T01:01:14.955Z,47.73
2019-03-05T01:04:19.743Z,47.90
2019-03-05T01:06:49.508Z,47.93
2019-03-05T01:09:22.179Z,47.40
2019-03-05T01:11:52.119Z,47.03
2019-03-05T01:14:23.995Z,46.97
2019-03-05T01:16:53.833Z,47.53
2019-03-05T01:19:23.735Z,47.13
2019-03-05T01:21:53.567Z,47.20
2019-03-05T01:24:23.424Z,47.03
2019-03-05T01:26:53.168Z,46.67
2019-03-05T01:29:22.850Z,46.90
2019-03-05T01:32:10.080Z,47.20
2019-03-05T01:35:05.028Z,47.43
2019-03-05T01:37:34.851Z,46.30
2019-03-05T01:40:23.017Z,47.50
2019-03-05T01:42:52.783Z,47.30
2019-03-05T01:45:22.546Z,47.17
2019-03-05T01:47:52.327Z,46.67
2019-03-05T01:50:22.091Z,47.27
2019-03-05T01:52:52.552Z,47.10
2019-03-05T01:55:22.383Z,47.90
2019-03-05T01:57:52.162Z,47.43
2019-03-05T02:00:21.997Z,48.37
2019-03-05T02:02:51.711Z,47.57
2019-03-05T02:05:21.595Z,48.13
2019-03-05T02:07:52.433Z,47.47
2019-03-05T02:10:22.824Z,46.73
2019-03-05T02:12:52.603Z,47.83
2019-03-05T02:15:22.434Z,47.10
2019-03-05T02:17:52.133Z,47.53
2019-03-05T02:20:23.808Z,46.83
2019-03-05T02:22:57.983Z,46.23
2019-03-05T02:26:36.172Z,46.30
2019-03-05T02:29:31.994Z,47.07
2019-03-05T02:32:50.875Z,46.47
2019-03-05T02:35:57.539Z,47.03
2019-03-05T02:38:41.115Z,47.20
2019-03-05T02:41:25.939Z,46.43
2019-03-05T02:44:32.188Z,47.07
2019-03-05T02:47:38.642Z,46.67
2019-03-05T02:50:27.812Z,46.33
2019-03-05T02:53:31.495Z,46.93
2019-03-05T02:56:38.481Z,46.47
2019-03-05T02:59:06.909Z,46.40
2019-03-05T03:01:45.665Z,46.23
2019-03-05T03:04:17.412Z,46.43
2019-03-05T03:06:47.187Z,46.40
2019-03-05T03:10:07.063Z,47.13
2019-03-05T03:12:37.799Z,47.43
2019-03-05T03:15:15.051Z,46.30
2019-03-05T03:17:45.597Z,46.47
2019-03-05T03:20:17.367Z,45.87
2019-03-05T03:22:47.296Z,46.30
2019-03-05T03:25:21.084Z,46.40
2019-03-05T03:27:50.902Z,46.60
2019-03-05T03:30:30.136Z,46.70
2019-03-05T03:32:59.824Z,47.67
2019-03-05T03:35:29.666Z,46.80
2019-03-05T03:37:59.368Z,46.33
2019-03-05T03:40:29.209Z,46.00
2019-03-05T03:42:59.130Z,46.13
2019-03-05T03:45:28.840Z,46.30
2019-03-05T03:47:58.852Z,46.00
2019-03-05T03:50:28.546Z,46.53
2019-03-05T03:52:58.321Z,46.80
2019-03-05T03:55:28.207Z,46.50
2019-03-05T03:57:58.041Z,45.67
2019-03-05T04:00:27.730Z,45.10
2019-03-05T04:02:57.404Z,45.40
2019-03-05T04:05:27.175Z,45.03
2019-03-05T04:07:56.924Z,45.60
2019-03-05T04:10:26.769Z,45.57
2019-03-05T04:12:56.655Z,45.27
2019-03-05T04:15:26.423Z,45.30
2019-03-05T04:17:56.179Z,45.37
2019-03-05T04:20:39.547Z,45.20
2019-03-05T04:23:09.385Z,45.40
2019-03-05T04:25:39.155Z,45.43
2019-03-05T04:28:08.911Z,45.80
2019-03-05T04:30:38.665Z,45.83
2019-03-05T04:33:08.344Z,46.63
2019-03-05T04:35:38.050Z,46.30
2019-03-05T04:38:07.795Z,46.20
2019-03-05T04:40:37.554Z,46.43
2019-03-05T04:43:07.383Z,46.00
2019-03-05T04:45:45.630Z,45.50
2019-03-05T04:48:15.391Z,45.80
2019-03-05T04:51:04.318Z,46.43
2019-03-05T04:53:34.070Z,46.07
2019-03-05T04:56:03.903Z,46.57
2019-03-05T04:58:33.661Z,46.10
2019-03-05T05:01:03.672Z,46.17
2019-03-05T05:03:33.499Z,45.80
2019-03-05T05:06:03.191Z,45.73
2019-03-05T05:08:32.941Z,46.50
2019-03-05T05:11:02.631Z,45.57
2019-03-05T05:13:32.383Z,45.90
2019-03-05T05:16:03.189Z,45.50
2019-03-05T05:18:32.873Z,45.83
2019-03-05T05:21:02.558Z,46.47
2019-03-05T05:23:32.239Z,45.67
2019-03-05T05:26:01.933Z,46.10
2019-03-05T05:28:31.611Z,46.37
2019-03-05T05:31:01.314Z,46.17
2019-03-05T05:33:30.986Z,46.10
2019-03-05T05:36:00.687Z,46.50
2019-03-05T05:38:30.382Z,46.37
2019-03-05T05:41:01.134Z,46.40
2019-03-05T05:43:31.582Z,46.80
2019-03-05T05:46:01.419Z,47.20
2019-03-05T05:48:31.134Z,46.57
2019-03-05T05:51:00.974Z,47.10
2019-03-05T05:53:30.734Z,46.97
2019-03-05T05:56:00.428Z,46.00
2019-03-05T05:58:31.163Z,45.77
2019-03-05T06:01:03.394Z,45.97
2019-03-05T06:03:33.147Z,47.40
2019-03-05T06:06:02.911Z,47.27
2019-03-05T06:08:32.673Z,45.90
2019-03-05T06:11:02.439Z,46.10
2019-03-05T06:13:32.267Z,45.30
2019-03-05T06:16:02.056Z,46.23
2019-03-05T06:18:31.800Z,46.13
2019-03-05T06:21:01.567Z,45.50
2019-03-05T06:23:31.334Z,45.80
2019-03-05T06:26:01.031Z,45.60
2019-03-05T06:28:30.732Z,46.00
2019-03-05T06:31:00.417Z,46.57
2019-03-05T06:33:30.207Z,49.37
2019-03-05T06:36:00.003Z,49.20
2019-03-05T06:38:30.659Z,48.80
2019-03-05T06:41:00.360Z,48.03
2019-03-05T06:43:30.149Z,48.50
2019-03-05T06:45:59.852Z,48.73
2019-03-05T06:48:29.530Z,48.67
2019-03-05T06:50:59.239Z,47.93
2019-03-05T06:53:28.923Z,48.50
2019-03-05T06:55:58.718Z,45.80
2019-03-05T06:58:28.405Z,45.50
2019-03-05T07:00:58.091Z,45.57
2019-03-05T07:03:27.921Z,46.17
2019-03-05T07:06:33.412Z,45.33
2019-03-05T07:09:08.658Z,45.67
2019-03-05T07:12:00.862Z,45.23
2019-03-05T07:15:11.031Z,45.67
2019-03-05T07:17:44.799Z,45.77
2019-03-05T07:20:42.260Z,46.10
2019-03-05T07:23:17.832Z,45.70
2019-03-05T07:25:47.663Z,45.90
2019-03-05T07:28:17.359Z,45.77
2019-03-05T07:30:47.040Z,45.73
2019-03-05T07:33:16.742Z,45.87
2019-03-05T07:35:46.582Z,46.97
2019-03-05T07:38:16.344Z,46.07
2019-03-05T07:40:46.039Z,46.43
2019-03-05T07:43:15.740Z,46.40
2019-03-05T07:45:45.435Z,46.30
2019-03-05T07:48:15.319Z,45.93
2019-03-05T07:50:45.179Z,46.57
2019-03-05T07:53:14.942Z,46.33
2019-03-05T07:55:44.700Z,46.97
2019-03-05T07:58:14.403Z,46.87
2019-03-05T08:00:44.156Z,47.17
2019-03-05T08:03:13.851Z,46.90
2019-03-05T08:05:43.675Z,46.70
2019-03-05T08:08:48.888Z,46.90
2019-03-05T08:11:18.570Z,46.47
2019-03-05T08:14:38.570Z,46.67
2019-03-05T08:17:08.535Z,46.77
2019-03-05T08:19:38.215Z,46.03
2019-03-05T08:22:08.979Z,46.17
2019-03-05T08:24:38.718Z,46.17
2019-03-05T08:27:08.567Z,46.53
2019-03-05T08:29:38.255Z,46.03
2019-03-05T08:32:07.950Z,46.50
2019-03-05T08:34:37.858Z,46.30
2019-03-05T08:37:07.703Z,46.27
2019-03-05T08:39:37.404Z,46.73
2019-03-05T08:42:07.176Z,46.53
2019-03-05T08:44:36.864Z,46.27
2019-03-05T08:47:06.799Z,46.07
2019-03-05T08:49:37.463Z,46.00
2019-03-05T08:52:07.294Z,46.20
2019-03-05T08:54:37.059Z,46.23
2019-03-05T08:57:06.831Z,45.93
2019-03-05T08:59:36.652Z,46.47
2019-03-05T09:02:06.515Z,45.73
2019-03-05T09:04:36.195Z,46.07
2019-03-05T09:07:06.109Z,47.70
2019-03-05T09:09:35.787Z,46.83
2019-03-05T09:12:05.947Z,47.13
2019-03-05T09:14:35.805Z,47.07
2019-03-05T09:17:05.835Z,46.57
2019-03-05T09:19:35.603Z,46.57
2019-03-05T09:22:05.435Z,46.50
2019-03-05T09:24:35.209Z,46.20
2019-03-05T09:27:05.030Z,46.77
2019-03-05T09:29:34.723Z,46.53
2019-03-05T09:32:04.649Z,46.67
2019-03-05T09:34:34.460Z,46.80
2019-03-05T09:37:04.287Z,46.67
2019-03-05T09:39:33.976Z,46.87
2019-03-05T09:42:03.739Z,46.60
2019-03-05T09:44:33.435Z,46.47
2019-03-05T09:47:03.292Z,46.57
2019-03-05T09:49:33.132Z,46.47
2019-03-05T09:52:02.970Z,46.50
2019-03-05T09:54:32.809Z,46.37
2019-03-05T09:57:02.566Z,46.80
2019-03-05T09:59:32.262Z,45.97
2019-03-05T10:02:02.022Z,46.17
2019-03-05T10:04:31.787Z,46.43
2019-03-05T10:07:01.595Z,46.63
2019-03-05T10:09:31.352Z,46.07
2019-03-05T10:12:01.116Z,46.47
2019-03-05T10:14:30.943Z,46.80
2019-03-05T10:17:00.703Z,46.57
2019-03-05T10:19:30.395Z,46.40
2019-03-05T10:22:00.080Z,46.23
2019-03-05T10:24:29.847Z,46.00
2019-03-05T10:27:00.743Z,46.30
2019-03-05T10:29:30.579Z,46.20
2019-03-05T10:32:00.259Z,46.63
2019-03-05T10:34:30.103Z,45.90
2019-03-05T10:36:59.929Z,46.70
2019-03-05T10:39:31.148Z,45.97
2019-03-05T10:42:01.355Z,46.00
2019-03-05T10:44:31.120Z,46.20
2019-03-05T10:47:00.950Z,46.17
2019-03-05T10:49:30.683Z,45.93
2019-03-05T10:52:00.441Z,46.20
2019-03-05T10:54:30.378Z,46.57
2019-03-05T10:57:01.175Z,46.40
2019-03-05T10:59:30.951Z,46.97
2019-03-05T11:02:00.711Z,46.93
2019-03-05T11:04:31.353Z,46.97
2019-03-05T11:07:01.107Z,46.80
2019-03-05T11:09:30.867Z,46.90
2019-03-05T11:12:00.798Z,46.90
2019-03-05T11:14:30.483Z,46.83
2019-03-05T11:17:00.239Z,46.80
2019-03-05T11:19:30.019Z,46.50
2019-03-05T11:21:59.841Z,47.20
2019-03-05T11:24:29.686Z,47.33
2019-03-05T11:26:59.374Z,46.97
2019-03-05T11:32:40.611Z,47.13
2019-03-05T11:35:10.534Z,46.50
2019-03-05T11:37:40.367Z,46.80
2019-03-05T11:40:20.729Z,46.63
2019-03-05T11:42:42.668Z,46.80
2019-03-05T11:45:15.247Z,46.40
2019-03-05T11:47:45.088Z,47.13
2019-03-05T11:50:15.219Z,46.77
2019-03-05T11:52:45.005Z,47.03
2019-03-05T11:55:18.151Z,46.80
2019-03-05T11:57:47.987Z,46.93
2019-03-05T12:00:41.591Z,46.77
2019-03-05T12:03:11.525Z,46.33
2019-03-05T12:05:41.411Z,46.83
2019-03-05T12:08:11.159Z,46.60
2019-03-05T12:10:40.987Z,47.23
2019-03-05T12:13:10.802Z,47.27
2019-03-05T12:15:40.595Z,47.70
2019-03-05T12:18:10.444Z,46.90
2019-03-05T12:20:40.299Z,47.20
2019-03-05T12:23:10.726Z,47.53
2019-03-05T12:25:41.652Z,47.63
2019-03-05T12:28:11.627Z,47.10
2019-03-05T12:30:41.511Z,47.40
2019-03-05T12:33:11.353Z,47.17
2019-03-05T12:35:41.040Z,46.90
2019-03-05T12:38:10.938Z,47.70
2019-03-05T12:40:40.723Z,46.90
2019-03-05T12:43:10.479Z,47.07
2019-03-05T12:45:40.407Z,47.10
2019-03-05T12:48:10.183Z,46.90
2019-03-05T12:50:40.035Z,47.20
2019-03-05T12:53:10.150Z,47.43
2019-03-05T12:55:39.929Z,47.40
2019-03-05T12:58:09.623Z,47.17
2019-03-05T13:00:39.555Z,47.00
2019-03-05T13:03:09.317Z,47.60
2019-03-05T13:05:39.108Z,49.47
2019-03-05T13:08:08.935Z,47.40
2019-03-05T13:10:38.786Z,47.23
2019-03-05T13:13:10.489Z,47.60
2019-03-05T13:15:40.469Z,47.03
2019-03-05T13:18:10.327Z,49.73
2019-03-05T13:20:40.411Z,50.53
2019-03-05T13:23:10.718Z,50.00
2019-03-05T13:25:40.735Z,49.87
2019-03-05T13:28:10.579Z,50.77
2019-03-05T13:30:43.837Z,50.33
2019-03-05T13:33:13.616Z,47.27
2019-03-05T13:35:43.384Z,47.90
2019-03-05T13:38:13.965Z,47.53
2019-03-05T13:40:43.731Z,47.63
2019-03-05T13:43:13.495Z,47.80
2019-03-05T13:45:49.153Z,47.40
2019-03-05T13:48:58.455Z,47.00
2019-03-05T13:51:59.598Z,47.33
2019-03-05T13:54:38.239Z,47.50
2019-03-05T13:57:55.315Z,50.33
2019-03-05T14:00:26.056Z,50.57
2019-03-05T14:03:00.438Z,49.57
2019-03-05T14:06:04.158Z,49.77
2019-03-05T14:09:09.701Z,49.60
2019-03-05T14:11:40.158Z,47.43
2019-03-05T14:14:16.284Z,47.73
2019-03-05T14:16:46.841Z,47.40
2019-03-05T14:19:16.683Z,47.33
2019-03-05T14:21:46.455Z,47.60
2019-03-05T14:24:16.300Z,48.10
2019-03-05T14:26:46.047Z,47.67
2019-03-05T14:29:15.887Z,47.10
2019-03-05T14:31:46.071Z,47.77
2019-03-05T14:34:15.973Z,47.67
2019-03-05T14:36:45.810Z,47.30
2019-03-05T14:39:31.837Z,47.03
2019-03-05T14:42:03.035Z,47.27
2019-03-05T14:44:39.773Z,46.97
2019-03-05T14:47:05.339Z,47.10
2019-03-05T14:49:35.025Z,47.77
2019-03-05T14:52:05.382Z,47.07
2019-03-05T14:54:35.294Z,46.87
2019-03-05T14:57:05.310Z,48.40
2019-03-05T14:59:35.057Z,47.30
2019-03-05T15:02:05.081Z,46.93
2019-03-05T15:04:34.920Z,46.90
2019-03-05T15:07:04.924Z,47.20
2019-03-05T15:09:34.702Z,46.73
2019-03-05T15:12:04.555Z,47.07
2019-03-05T15:14:34.466Z,47.40
2019-03-05T15:17:04.296Z,47.23
2019-03-05T15:19:34.738Z,47.17
2019-03-05T15:22:04.826Z,47.30
2019-03-05T15:24:34.558Z,47.53
2019-03-05T15:27:04.367Z,47.60
2019-03-05T15:29:34.103Z,47.90
2019-03-05T15:32:03.910Z,47.53
2019-03-05T15:34:33.624Z,47.40
2019-03-05T15:37:03.522Z,47.00
2019-03-05T15:39:33.266Z,47.10
2019-03-05T15:42:03.094Z,47.77
2019-03-05T15:44:32.912Z,47.47
2019-03-05T15:47:02.759Z,47.73
2019-03-05T15:49:32.497Z,47.57
2019-03-05T15:52:02.262Z,47.10
2019-03-05T15:54:32.135Z,47.67
2019-03-05T15:57:01.964Z,47.90
2019-03-05T15:59:31.657Z,48.07
2019-03-05T16:02:01.594Z,47.77
2019-03-05T16:04:31.427Z,46.80
2019-03-05T16:07:01.285Z,46.73
2019-03-05T16:09:31.055Z,46.73
2019-03-05T16:12:00.891Z,47.43
2019-03-05T16:14:32.876Z,47.60
2019-03-05T16:17:02.055Z,47.33
2019-03-05T16:19:31.811Z,47.13
2019-03-05T16:22:01.511Z,47.30
2019-03-05T16:24:33.849Z,46.83
2019-03-05T16:27:02.723Z,46.73
2019-03-05T16:29:32.413Z,46.53
2019-03-05T16:32:34.187Z,46.50
2019-03-05T16:35:29.436Z,47.00
2019-03-05T16:38:18.720Z,46.57
2019-03-05T16:41:22.166Z,46.83
2019-03-05T16:44:09.532Z,46.77
2019-03-05T16:46:50.915Z,46.47
2019-03-05T16:49:44.391Z,46.83
2019-03-05T16:52:23.890Z,46.90
2019-03-05T16:55:15.492Z,46.57
2019-03-05T16:57:52.833Z,47.83
2019-03-05T17:00:31.187Z,46.80
2019-03-05T17:03:22.802Z,46.73
2019-03-05T17:06:10.566Z,46.77
2019-03-05T17:08:57.958Z,46.83
2019-03-05T17:11:55.793Z,46.40
2019-03-05T17:14:25.767Z,46.53
2019-03-05T17:16:55.653Z,46.77
2019-03-05T17:19:27.778Z,47.30
2019-03-05T17:21:57.524Z,47.00
2019-03-05T17:24:27.379Z,47.00
2019-03-05T17:26:57.171Z,47.33
2019-03-05T17:29:26.888Z,47.13
2019-03-05T17:31:56.786Z,47.20
2019-03-05T17:34:26.927Z,47.23
2019-03-05T17:36:56.745Z,47.17
2019-03-05T17:39:26.863Z,46.87
2019-03-05T17:41:56.627Z,47.40
2019-03-05T17:44:26.472Z,47.27
2019-03-05T17:46:56.230Z,46.97
2019-03-05T17:49:26.023Z,46.73
2019-03-05T17:51:55.874Z,49.90
2019-03-05T17:54:25.996Z,49.63
2019-03-05T17:56:56.012Z,49.50
2019-03-05T17:59:28.043Z,50.00
2019-03-05T18:01:57.729Z,49.67
2019-03-05T18:04:27.506Z,49.37
2019-03-05T18:06:57.205Z,47.23
2019-03-05T18:09:27.070Z,46.23
2019-03-05T18:11:56.896Z,46.93
2019-03-05T18:14:26.678Z,46.37
2019-03-05T18:16:56.611Z,46.87
2019-03-05T18:19:26.829Z,46.93
2019-03-05T18:21:57.669Z,46.47
2019-03-05T18:24:27.444Z,46.90
2019-03-05T18:26:57.311Z,47.17
2019-03-05T18:29:27.084Z,46.10
2019-03-05T18:31:56.839Z,47.37
2019-03-05T18:34:26.655Z,46.47
2019-03-05T18:36:56.334Z,46.97
2019-03-05T18:39:26.207Z,47.07
2019-03-05T18:41:55.971Z,47.73
2019-03-05T18:44:26.712Z,46.50
2019-03-05T18:46:56.486Z,47.23
2019-03-05T18:49:27.230Z,46.73
2019-03-05T18:51:57.010Z,46.70
2019-03-05T18:54:26.691Z,46.13
2019-03-05T18:56:56.381Z,46.30
2019-03-05T18:59:26.155Z,46.50
2019-03-05T19:01:55.991Z,46.70
2019-03-05T19:04:25.691Z,46.43
2019-03-05T19:06:55.383Z,46.50
2019-03-05T19:09:25.155Z,46.37
2019-03-05T19:11:54.991Z,47.03
2019-03-05T19:14:25.727Z,47.30
2019-03-05T19:16:55.556Z,47.10
2019-03-05T19:19:25.394Z,47.23
2019-03-05T19:21:55.153Z,47.93
2019-03-05T19:24:25.000Z,47.17
2019-03-05T19:26:54.751Z,47.17
2019-03-05T19:29:24.459Z,46.70
2019-03-05T19:31:54.288Z,48.00
2019-03-05T19:34:23.981Z,47.07
2019-03-05T19:36:54.774Z,47.07
2019-03-05T19:39:25.515Z,46.83
2019-03-05T19:41:56.345Z,46.70
2019-03-05T19:44:26.221Z,47.47
2019-03-05T19:46:55.986Z,46.80
2019-03-05T19:49:25.746Z,46.37
2019-03-05T19:51:55.435Z,47.40
2019-03-05T19:54:25.130Z,46.60
2019-03-05T19:56:54.897Z,47.77
2019-03-05T19:59:24.650Z,46.50
2019-03-05T20:01:54.339Z,47.07
2019-03-05T20:04:24.030Z,46.30
2019-03-05T20:06:53.723Z,46.60
2019-03-05T20:09:23.926Z,46.27
2019-03-05T20:11:53.763Z,47.20
2019-03-05T20:14:23.750Z,47.73
2019-03-05T20:16:53.460Z,47.60
2019-03-05T20:19:23.227Z,47.00
2019-03-05T20:21:53.051Z,47.37
2019-03-05T20:24:22.823Z,46.47
2019-03-05T20:26:52.511Z,47.03
2019-03-05T20:29:23.330Z,46.50
2019-03-05T20:31:53.087Z,47.57
2019-03-05T20:34:23.846Z,47.00
2019-03-05T20:36:53.531Z,46.90
2019-03-05T20:39:23.368Z,46.03
2019-03-05T20:41:53.193Z,47.00
2019-03-05T20:44:22.952Z,46.47
2019-03-05T20:46:52.745Z,46.50
2019-03-05T20:49:22.599Z,46.33
2019-03-05T20:51:52.321Z,46.33
2019-03-05T20:54:22.170Z,46.20
2019-03-05T20:56:51.858Z,47.53
2019-03-05T20:59:21.551Z,46.10
2019-03-05T21:01:51.592Z,46.47
2019-03-05T21:04:21.351Z,46.50
2019-03-05T21:06:51.191Z,47.23
2019-03-05T21:09:22.950Z,46.07
2019-03-05T21:11:53.076Z,46.70
2019-03-05T21:14:22.899Z,46.40
2019-03-05T21:16:53.114Z,46.60
2019-03-05T21:19:22.788Z,46.27
2019-03-05T21:21:52.474Z,46.60
2019-03-05T21:24:22.154Z,46.20
2019-03-05T21:26:51.843Z,47.07
2019-03-05T21:29:21.727Z,46.77
2019-03-05T21:31:51.491Z,46.43
2019-03-05T21:34:21.171Z,46.30
2019-03-05T21:36:50.860Z,46.13
2019-03-05T21:39:20.840Z,46.23
2019-03-05T21:41:50.531Z,46.10
2019-03-05T21:44:20.219Z,46.00
2019-03-05T21:46:49.914Z,45.87
2019-03-05T21:49:19.758Z,46.27
2019-03-05T21:51:49.543Z,45.90
2019-03-05T21:54:19.262Z,46.23
2019-03-05T21:56:49.965Z,46.27
2019-03-05T21:59:20.075Z,46.13
2019-03-05T22:01:49.766Z,46.00
2019-03-05T22:04:20.414Z,46.50
2019-03-05T22:06:50.106Z,45.70
2019-03-05T22:09:19.863Z,45.97
2019-03-05T22:11:49.622Z,46.93
2019-03-05T22:14:19.315Z,46.47
2019-03-05T22:16:49.007Z,46.47
2019-03-05T22:19:18.759Z,46.60
2019-03-05T22:21:48.521Z,47.20
2019-03-05T22:24:18.276Z,46.60
2019-03-05T22:26:47.975Z,45.90
2019-03-05T22:29:18.633Z,46.13
2019-03-05T22:31:48.396Z,46.37
2019-03-05T22:34:18.328Z,46.00
2019-03-05T22:36:48.023Z,46.43
2019-03-05T22:39:17.714Z,46.07
2019-03-05T22:41:47.647Z,45.77
2019-03-05T22:44:17.399Z,46.10
2019-03-05T22:46:47.175Z,46.13
2019-03-05T22:49:16.880Z,46.00
2019-03-05T22:51:46.634Z,45.70
2019-03-05T22:54:16.327Z,45.97
2019-03-05T22:56:46.096Z,46.23
2019-03-05T22:59:15.843Z,45.97
2019-03-05T23:01:45.619Z,45.90
2019-03-05T23:04:19.131Z,45.53
2019-03-05T23:06:48.823Z,45.97
2019-03-05T23:09:23.438Z,45.57
2019-03-05T23:11:53.555Z,45.90
2019-03-05T23:14:23.592Z,45.77
2019-03-05T23:16:53.711Z,46.40
2019-03-05T23:19:23.816Z,45.93
2019-03-05T23:21:54.731Z,46.70
2019-03-05T23:24:24.568Z,46.53
2019-03-05T23:26:54.522Z,45.80
2019-03-05T23:29:44.219Z,46.33
2019-03-05T23:32:15.946Z,46.00
2019-03-05T23:34:45.776Z,46.23
2019-03-05T23:37:15.631Z,45.97
2019-03-05T23:39:45.467Z,46.07
2019-03-05T23:42:15.231Z,46.17
2019-03-05T23:44:45.068Z,45.97
2019-03-05T23:47:14.758Z,45.90
2019-03-05T23:49:44.439Z,46.23
2019-03-05T23:52:14.221Z,46.33
2019-03-05T23:54:43.908Z,46.57
2019-03-05T23:57:13.587Z,45.73
2019-03-05T23:59:43.267Z,46.60
